Time;durP1;ratioP1;P1;durP2;ratioP2;P2;SDS_P1;SDS_P2;PMS_P1;PMS_P2;Temp;Humidity;BMP_temperature;BMP_pressure;BME280_temperature;BME280_humidity;BME280_pressure;Samples;Min_cycle;Max_cycle;Signal;HPM_P1;HPM_P2
2022/01/07 00:00:42;;;;;;;6.70;4.22;;;;;;;0.06;80.35;97576.78;4882137;29;20051;-75
2022/01/07 00:03:11;;;;;;;5.07;3.17;;;;;;;0.06;79.75;97584.66;4882072;29;20070;-71
2022/01/07 00:05:35;;;;;;;5.20;3.08;;;;;;;0.04;80.69;97583.91;4882866;29;20413;-71
2022/01/07 00:08:00;;;;;;;4.22;3.30;;;;;;;-0.13;77.96;97586.72;4882122;29;20389;-72
2022/01/07 00:10:26;;;;;;;4.18;3.03;;;;;;;-0.25;76.20;97585.69;4881779;29;20056;-70
2022/01/07 00:12:51;;;;;;;5.22;2.92;;;;;;;-0.40;76.35;97591.84;4881172;29;20418;-71
2022/01/07 00:15:16;;;;;;;2.78;2.13;;;;;;;-0.34;78.01;97585.41;4882093;29;20463;-71
2022/01/07 00:17:43;;;;;;;2.67;2.33;;;;;;;-0.37;78.53;97583.81;4882695;29;20048;-72
2022/01/07 00:20:09;;;;;;;3.92;2.38;;;;;;;-0.34;79.47;97591.50;4881626;29;20051;-73
2022/01/07 00:22:34;;;;;;;2.97;1.70;;;;;;;-0.39;78.51;97588.31;4873116;29;20040;-73
2022/01/07 00:24:59;;;;;;;4.90;2.63;;;;;;;-0.39;78.83;97593.53;4863480;29;20048;-73
2022/01/07 00:27:24;;;;;;;2.15;1.38;;;;;;;-0.50;77.04;97598.56;4862149;29;20492;-72
2022/01/07 00:29:48;;;;;;;3.92;1.55;;;;;;;-0.58;76.60;97598.19;4861960;29;20116;-70
2022/01/07 00:32:13;;;;;;;2.20;2.03;;;;;;;-0.66;76.14;97598.63;4862796;29;20516;-73
2022/01/07 00:34:38;;;;;;;2.20;1.75;;;;;;;-0.64;77.56;97599.38;4861720;29;20057;-71
2022/01/07 00:37:03;;;;;;;1.80;1.48;;;;;;;-0.59;78.88;97597.34;4862781;29;20045;-74
2022/01/07 00:39:27;;;;;;;2.55;1.60;;;;;;;-0.66;77.58;97601.25;4862968;29;20914;-72
2022/01/07 00:41:52;;;;;;;2.35;1.55;;;;;;;-0.71;77.95;97598.06;4862647;29;20048;-71
2022/01/07 00:44:17;;;;;;;5.88;1.95;;;;;;;-0.79;77.90;97590.66;4861732;29;20061;-70
2022/01/07 00:46:42;;;;;;;1.73;1.30;;;;;;;-0.76;79.89;97600.09;4861302;29;20561;-70
2022/01/07 00:49:06;;;;;;;2.40;1.73;;;;;;;-0.87;78.18;97595.50;4861804;29;20059;-70
2022/01/07 00:51:32;;;;;;;2.72;1.95;;;;;;;-1.01;77.03;97603.28;4862621;29;20059;-74
2022/01/07 00:53:56;;;;;;;2.33;1.33;;;;;;;-0.92;77.02;97613.25;4862523;29;20051;-73
2022/01/07 00:56:21;;;;;;;2.42;1.65;;;;;;;-0.75;78.48;97614.88;4860701;29;20044;-73
2022/01/07 00:58:46;;;;;;;3.38;1.50;;;;;;;-0.66;79.56;97606.47;4862159;29;20063;-74
2022/01/07 01:01:13;;;;;;;1.33;1.00;;;;;;;-0.69;77.58;97609.28;4862544;29;20563;-72
2022/01/07 01:03:38;;;;;;;1.40;1.20;;;;;;;-0.58;77.98;97609.50;4861322;29;20113;-72
2022/01/07 01:06:03;;;;;;;2.17;1.33;;;;;;;-0.54;77.36;97605.75;4861640;29;20052;-72
2022/01/07 01:08:28;;;;;;;3.22;1.73;;;;;;;-0.48;76.96;97607.19;4862656;29;20058;-73
2022/01/07 01:10:54;;;;;;;3.58;1.70;;;;;;;-0.44;77.00;97595.56;4829288;29;20047;-74
2022/01/07 01:13:19;;;;;;;3.60;2.03;;;;;;;-0.45;76.53;97593.88;4860585;29;20139;-74
2022/01/07 01:15:43;;;;;;;3.00;1.30;;;;;;;-0.38;77.24;97600.47;4861865;29;20052;-73
2022/01/07 01:18:08;;;;;;;1.08;0.70;;;;;;;-0.39;77.14;97602.22;4861586;29;20070;-74
2022/01/07 01:20:33;;;;;;;0.85;0.80;;;;;;;-0.29;79.18;97609.53;4860293;29;20116;-74
2022/01/07 01:22:57;;;;;;;1.67;1.38;;;;;;;-0.27;80.24;97607.66;4861726;29;20630;-75
2022/01/07 01:25:22;;;;;;;1.45;1.35;;;;;;;-0.27;79.19;97607.66;4860344;29;20385;-67
2022/01/07 01:27:47;;;;;;;1.65;1.15;;;;;;;-0.32;78.39;97609.72;4860456;29;20077;-66
2022/01/07 01:30:17;;;;;;;1.67;1.20;;;;;;;-0.28;79.11;97605.97;4866347;29;20463;-68
2022/01/07 01:32:43;;;;;;;2.97;1.23;;;;;;;-0.28;78.30;97601.59;4868199;29;20083;-67
2022/01/07 01:35:11;;;;;;;1.95;1.50;;;;;;;-0.31;77.36;97612.22;4870414;29;20045;-67
2022/01/07 01:37:35;;;;;;;1.02;0.93;;;;;;;-0.29;77.94;97617.38;4866061;29;20040;-68
2022/01/07 01:40:00;;;;;;;2.22;1.10;;;;;;;-0.26;78.59;97614.59;4868097;29;20039;-70
2022/01/07 01:42:25;;;;;;;1.65;0.85;;;;;;;-0.23;79.06;97614.41;4869616;29;20055;-69
2022/01/07 01:44:50;;;;;;;3.10;1.15;;;;;;;-0.33;76.47;97613.25;4867493;29;21132;-70
2022/01/07 01:47:15;;;;;;;1.77;0.90;;;;;;;-0.34;76.08;97611.59;4865417;29;20135;-68
2022/01/07 01:49:40;;;;;;;1.05;0.95;;;;;;;-0.34;77.37;97622.06;4868575;29;20134;-71
2022/01/07 01:52:05;;;;;;;0.80;0.80;;;;;;;-0.47;75.42;97614.94;4870479;29;20048;-67
2022/01/07 01:54:30;;;;;;;1.05;0.88;;;;;;;-0.48;75.39;97615.03;4869545;29;20044;-74
2022/01/07 01:56:55;;;;;;;3.65;0.88;;;;;;;-0.50;74.88;97617.75;4878433;29;20051;-73
2022/01/07 01:59:25;;;;;;;1.58;1.10;;;;;;;-0.45;75.55;97618.28;4879197;29;20039;-70
2022/01/07 02:01:53;;;;;;;1.17;0.85;;;;;;;-0.51;75.34;97613.44;4880386;29;20052;-71
2022/01/07 02:04:18;;;;;;;0.75;0.73;;;;;;;-0.55;74.91;97624.16;4879708;29;20043;-71
2022/01/07 02:06:42;;;;;;;2.22;1.10;;;;;;;-0.43;77.38;97619.03;4880262;29;20103;-74
2022/01/07 02:09:07;;;;;;;1.92;1.02;;;;;;;-0.38;79.34;97622.25;4879220;29;20499;-71
2022/01/07 02:11:36;;;;;;;1.52;1.00;;;;;;;-0.34;80.70;97619.44;4879017;29;20048;-72
2022/01/07 02:14:01;;;;;;;1.40;1.30;;;;;;;-0.56;75.95;97625.94;4864259;29;20045;-70
2022/01/07 02:16:27;;;;;;;3.30;0.52;;;;;;;-0.58;75.06;97625.22;4860075;29;20044;-72
2022/01/07 02:18:53;;;;;;;1.13;0.93;;;;;;;-0.49;75.84;97634.28;4860656;29;20049;-72
2022/01/07 02:21:17;;;;;;;1.05;0.90;;;;;;;-0.56;74.77;97628.56;4859371;29;20512;-75
2022/01/07 02:23:42;;;;;;;1.83;1.17;;;;;;;-0.54;75.11;97629.31;4860311;29;20448;-72
2022/01/07 02:26:07;;;;;;;1.38;0.90;;;;;;;-0.50;75.37;97629.97;4843097;29;20040;-74
2022/01/07 02:28:34;;;;;;;1.60;1.00;;;;;;;-0.48;76.19;97636.81;4859305;29;20060;-69
2022/01/07 02:30:59;;;;;;;1.60;1.30;;;;;;;-0.55;74.38;97632.84;4858234;29;20135;-69
2022/01/07 02:33:23;;;;;;;5.40;1.15;;;;;;;-0.49;75.41;97640.38;4858392;29;20136;-69
2022/01/07 02:35:48;;;;;;;1.77;1.42;;;;;;;-0.46;76.12;97637.56;4859568;29;20056;-69
2022/01/07 02:38:15;;;;;;;3.58;0.60;;;;;;;-0.49;74.94;97632.50;4859653;29;20044;-68
2022/01/07 02:40:41;;;;;;;1.77;1.20;;;;;;;-0.46;75.73;97644.59;4859640;29;20084;-71
2022/01/07 02:43:06;;;;;;;0.60;0.60;;;;;;;-0.55;73.76;97640.69;4863514;29;20058;-69
2022/01/07 02:45:31;;;;;;;1.30;0.98;;;;;;;-0.50;74.68;97648.31;4863096;29;20048;-69
2022/01/07 02:47:57;;;;;;;2.10;0.50;;;;;;;-0.48;74.71;97647.28;4883384;29;20043;-67
2022/01/07 02:50:35;;;;;;;2.35;1.17;;;;;;;-0.56;74.16;97644.25;4865497;29;20901;-67
2022/01/07 02:53:00;;;;;;;1.35;0.93;;;;;;;-0.53;74.15;97645.84;4866063;29;20050;-66
2022/01/07 02:55:26;;;;;;;1.23;1.00;;;;;;;-0.48;75.22;97656.91;4849892;29;20073;-68
2022/01/07 02:57:51;;;;;;;1.58;1.02;;;;;;;-0.49;75.11;97655.22;4883497;29;20044;-67
2022/01/07 03:00:17;;;;;;;1.58;1.20;;;;;;;-0.58;73.77;97645.31;4850343;29;20052;-67
2022/01/07 03:02:43;;;;;;;1.75;1.30;;;;;;;-0.64;73.76;97646.47;4883469;29;20055;-69
2022/01/07 03:05:08;;;;;;;0.95;0.85;;;;;;;-0.64;73.46;97661.34;4883564;29;20082;-65
2022/01/07 03:07:33;;;;;;;0.52;0.52;;;;;;;-0.58;74.25;97655.75;4883268;29;20047;-70
2022/01/07 03:09:58;;;;;;;1.08;1.00;;;;;;;-0.59;74.31;97662.78;4883544;29;20124;-69
2022/01/07 03:12:23;;;;;;;2.22;1.20;;;;;;;-0.58;76.66;97651.38;4883145;29;20048;-66
2022/01/07 03:14:49;;;;;;;1.95;1.20;;;;;;;-0.57;76.44;97668.75;4866041;29;20052;-67
2022/01/07 03:17:14;;;;;;;2.15;1.38;;;;;;;-0.59;76.36;97664.53;4884047;29;20127;-67
2022/01/07 03:19:39;;;;;;;4.65;1.80;;;;;;;-0.60;75.11;97666.31;4884021;29;20138;-68
2022/01/07 03:22:03;;;;;;;1.05;0.70;;;;;;;-0.57;77.68;97666.16;4888176;29;20546;-69
2022/01/07 03:24:28;;;;;;;1.48;0.88;;;;;;;-0.77;74.04;97666.44;4901273;29;20510;-70
2022/01/07 03:26:53;;;;;;;3.08;1.55;;;;;;;-0.93;72.45;97665.66;4884425;29;20470;-68
2022/01/07 03:29:18;;;;;;;3.05;1.60;;;;;;;-0.81;73.60;97671.03;4901536;29;20055;-69
2022/01/07 03:31:42;;;;;;;2.65;1.23;;;;;;;-0.78;73.50;97670.81;4901312;29;20160;-69
2022/01/07 03:34:07;;;;;;;1.30;1.17;;;;;;;-0.77;74.41;97676.91;4884411;29;20763;-69
2022/01/07 03:36:32;;;;;;;3.25;2.05;;;;;;;-0.81;73.54;97678.03;4901004;29;20130;-68
2022/01/07 03:39:00;;;;;;;3.80;1.50;;;;;;;-0.74;74.91;97676.72;4901139;29;20051;-67
2022/01/07 03:41:26;;;;;;;1.33;1.20;;;;;;;-0.73;74.76;97678.41;4868260;29;20557;-66
2022/01/07 03:43:53;;;;;;;1.33;1.08;;;;;;;-0.75;74.50;97678.50;4880782;29;20067;-68
2022/01/07 03:46:19;;;;;;;2.08;1.17;;;;;;;-0.71;75.73;97684.41;4880922;29;20558;-67
2022/01/07 03:48:43;;;;;;;1.23;1.02;;;;;;;-0.77;74.76;97677.75;4881807;29;20542;-69
2022/01/07 03:51:08;;;;;;;2.53;1.60;;;;;;;-0.85;74.27;97679.97;4864892;29;20594;-68
2022/01/07 03:53:33;;;;;;;0.70;0.63;;;;;;;-0.77;75.27;97684.75;4880859;29;20051;-70
2022/01/07 03:55:58;;;;;;;1.55;1.30;;;;;;;-0.80;75.42;97690.19;4873587;29;20199;-69
2022/01/07 03:58:22;;;;;;;1.25;1.10;;;;;;;-0.94;75.03;97697.94;4871636;29;20091;-69
2022/01/07 04:00:47;;;;;;;3.33;2.03;;;;;;;-0.81;78.29;97696.34;4868552;29;20064;-69
2022/01/07 04:03:15;;;;;;;1.35;1.05;;;;;;;-0.83;78.96;97699.03;4871149;29;20048;-69
2022/01/07 04:05:40;;;;;;;1.58;1.13;;;;;;;-1.01;77.18;97684.34;4872701;29;20036;-71
2022/01/07 04:08:06;;;;;;;2.45;1.27;;;;;;;-1.13;77.01;97698.97;4869740;29;20044;-69
2022/01/07 04:10:31;;;;;;;2.38;1.08;;;;;;;-1.08;77.19;97700.50;4872448;29;20917;-68
2022/01/07 04:12:56;;;;;;;2.42;1.38;;;;;;;-1.13;77.40;97698.97;4872155;29;20053;-70
2022/01/07 04:15:23;;;;;;;1.50;1.15;;;;;;;-1.19;77.34;97706.31;4870828;29;20108;-70
2022/01/07 04:17:52;;;;;;;1.67;1.58;;;;;;;-1.23;77.08;97695.19;4872638;29;20447;-69
2022/01/07 11:23:32;;;;;;;3.90;1.88;;;;;;;-2.62;58.68;98079.88;5849645;23;20356;31
2022/01/07 11:26:02;;;;;;;4.45;2.53;;;;;;;-2.64;61.19;98081.72;4838455;29;20571;-69
2022/01/07 11:28:28;;;;;;;4.13;2.30;;;;;;;-3.16;57.02;98087.44;4810045;29;20045;-67
2022/01/07 11:31:07;;;;;;;6.47;2.97;;;;;;;-3.08;57.19;98083.59;4840742;29;20423;-67
2022/01/07 11:33:32;;;;;;;8.27;2.97;;;;;;;-3.06;57.01;98094.81;4841406;29;20102;-68
2022/01/07 11:35:58;;;;;;;3.45;1.98;;;;;;;-2.92;62.39;98094.22;4824993;29;20045;-68
2022/01/07 11:38:44;;;;;;;5.15;2.20;;;;;;;-2.86;61.71;98088.75;4826399;29;20065;-67
2022/01/07 11:41:13;;;;;;;4.10;1.90;;;;;;;-2.90;63.42;98089.78;4826436;29;20451;-69
2022/01/07 11:43:46;;;;;;;3.65;2.55;;;;;;;-3.23;59.45;98080.78;4840668;29;20073;-67
2022/01/07 11:46:22;;;;;;;2.90;1.38;;;;;;;-3.17;61.06;98091.81;4840608;29;20110;-67
2022/01/07 11:48:47;;;;;;;3.30;2.28;;;;;;;-3.32;58.67;98087.22;4826452;29;20068;-69
2022/01/07 11:51:15;;;;;;;3.50;2.17;;;;;;;-3.28;61.82;98090.56;4826437;29;20049;-68
2022/01/07 11:53:40;;;;;;;5.68;2.15;;;;;;;-3.40;61.84;98091.91;4826754;29;20138;-66
2022/01/07 11:56:08;;;;;;;4.22;2.28;;;;;;;-3.55;61.48;98087.28;4809637;29;20041;-66
2022/01/07 11:58:51;;;;;;;4.20;2.70;;;;;;;-3.64;60.19;98091.13;4826268;29;20114;-69
2022/01/07 12:01:32;;;;;;;4.47;2.20;;;;;;;-3.56;61.49;98094.25;4826779;29;20049;-70
2022/01/07 12:04:26;;;;;;;3.47;2.53;;;;;;;-3.75;59.16;98098.50;4827086;29;20045;-66
2022/01/07 12:06:51;;;;;;;2.92;2.17;;;;;;;-3.78;60.58;98098.59;4826501;29;20045;-66
2022/01/07 12:09:21;;;;;;;6.90;2.70;;;;;;;-3.72;62.54;98100.97;4826064;29;20110;-67
2022/01/07 12:12:01;;;;;;;5.60;3.17;;;;;;;-3.84;60.99;98089.28;4825658;29;20106;-67
2022/01/07 12:14:31;;;;;;;2.50;1.58;;;;;;;-3.76;65.32;98104.59;4843668;29;20087;-68
2022/01/07 12:16:59;;;;;;;4.32;2.25;;;;;;;-4.18;59.49;98092.31;4826313;29;20408;-65
2022/01/07 12:19:35;;;;;;;5.90;3.55;;;;;;;-4.18;60.95;98097.53;4829661;29;20122;-67
2022/01/07 12:22:00;;;;;;;4.88;3.08;;;;;;;-4.29;60.79;98097.06;4833196;29;20109;-67
2022/01/07 12:24:29;;;;;;;4.63;1.98;;;;;;;-4.42;61.98;98106.22;4825872;29;20053;-66
2022/01/07 12:27:13;;;;;;;4.93;2.67;;;;;;;-4.25;63.84;98105.59;4794241;29;20125;-67
2022/01/07 12:29:41;;;;;;;4.07;2.88;;;;;;;-4.30;64.13;98108.38;4825414;29;20218;-66
2022/01/07 12:32:08;;;;;;;5.00;2.55;;;;;;;-4.49;62.76;98110.78;4793589;29;20041;-65
2022/01/07 12:34:35;;;;;;;5.80;2.28;;;;;;;-4.39;67.06;98121.69;4825338;29;20057;-66
2022/01/07 12:37:09;;;;;;;5.60;2.72;;;;;;;-4.58;64.89;98131.06;4825022;29;20485;-66
2022/01/07 12:39:41;;;;;;;16.80;2.90;;;;;;;-4.49;67.25;98133.34;4825099;29;20049;-66
2022/01/07 12:42:07;;;;;;;4.93;2.53;;;;;;;-4.74;63.98;98129.91;4824947;29;20053;-66
2022/01/07 12:44:40;;;;;;;3.10;2.13;;;;;;;-4.64;66.19;98120.91;4825289;29;20053;-67
2022/01/07 12:47:06;;;;;;;9.02;2.67;;;;;;;-4.71;66.25;98124.59;4823833;29;20537;-66
2022/01/07 12:49:53;;;;;;;3.42;1.58;;;;;;;-4.66;67.54;98133.09;4839320;29;20045;-66
2022/01/07 12:52:29;;;;;;;4.97;2.55;;;;;;;-4.78;66.31;98137.81;4825489;29;20368;-66
2022/01/07 12:54:56;;;;;;;6.43;2.85;;;;;;;-4.70;68.18;98147.94;4825712;29;20073;-66
2022/01/07 12:57:30;;;;;;;2.22;1.90;;;;;;;-4.92;66.73;98150.41;4823205;29;20104;-67
2022/01/07 13:00:06;;;;;;;2.70;2.13;;;;;;;-4.95;66.34;98173.91;4839972;29;20066;-67
2022/01/07 13:02:32;;;;;;;4.10;2.05;;;;;;;-4.90;67.11;98173.75;4808006;29;20485;-66
2022/01/07 13:05:12;;;;;;;5.57;2.47;;;;;;;-4.72;68.97;98186.13;4808164;29;20120;-66
2022/01/07 13:07:41;;;;;;;3.67;2.10;;;;;;;-4.74;66.73;98179.31;4824675;29;20687;-66
2022/01/07 13:10:07;;;;;;;2.28;1.33;;;;;;;-4.82;66.28;98187.34;4808068;29;20497;-67
2022/01/07 13:12:32;;;;;;;4.53;2.05;;;;;;;-4.71;67.00;98194.78;4838789;29;20049;-68
2022/01/07 13:14:56;;;;;;;3.10;2.05;;;;;;;-4.57;67.56;98197.78;4824455;29;20117;-67
2022/01/07 13:17:28;;;;;;;4.10;2.05;;;;;;;-4.52;66.10;98204.53;4823178;29;20175;-65
2022/01/07 13:19:53;;;;;;;2.67;1.75;;;;;;;-4.45;67.65;98192.16;4793011;29;20416;-66
2022/01/07 13:22:19;;;;;;;3.15;1.45;;;;;;;-4.33;68.49;98203.88;4824683;29;20420;-65
2022/01/07 13:24:46;;;;;;;4.75;2.67;;;;;;;-4.59;67.26;98208.22;4789685;29;20218;-66
2022/01/07 13:27:11;;;;;;;2.80;1.60;;;;;;;-4.51;69.44;98215.75;4805992;29;20559;-66
2022/01/07 13:29:35;;;;;;;2.15;1.15;;;;;;;-4.55;68.25;98222.84;4805857;29;20576;-66
2022/01/07 13:32:04;;;;;;;3.28;1.35;;;;;;;-4.61;67.17;98211.78;4819969;29;20053;-67
2022/01/07 13:34:31;;;;;;;6.68;1.88;;;;;;;-4.47;68.34;98220.81;4805883;29;20224;-67
2022/01/07 13:37:00;;;;;;;1.75;1.65;;;;;;;-4.51;66.12;98220.97;4806607;29;20107;-68
2022/01/07 13:39:26;;;;;;;3.20;2.10;;;;;;;-4.47;66.35;98209.56;4806118;29;20065;-67
2022/01/07 13:41:53;;;;;;;6.63;2.13;;;;;;;-4.46;66.78;98193.06;4805979;29;20054;-68
2022/01/07 13:44:18;;;;;;;4.32;2.47;;;;;;;-4.65;63.96;98220.59;4807489;29;20058;-67
2022/01/07 13:46:50;;;;;;;4.60;1.95;;;;;;;-4.62;64.94;98230.88;4805798;29;20209;-68
2022/01/07 13:49:16;;;;;;;2.60;1.83;;;;;;;-4.61;64.96;98227.38;4789072;29;20493;-66
2022/01/07 13:51:50;;;;;;;2.28;1.52;;;;;;;-4.51;66.36;98227.00;4805776;29;20046;-68
2022/01/07 13:54:19;;;;;;;3.55;2.05;;;;;;;-4.60;64.97;98234.28;4819862;29;20045;-68
2022/01/07 13:56:55;;;;;;;4.18;2.38;;;;;;;-4.47;65.75;98218.22;4805503;29;20080;-69
2022/01/07 13:59:19;;;;;;;2.72;2.08;;;;;;;-4.43;65.58;98244.97;4805774;29;20056;-68
2022/01/07 14:01:59;;;;;;;5.05;2.25;;;;;;;-4.31;68.06;98241.97;4804122;29;20042;-69
2022/01/07 14:04:55;;;;;;;5.03;2.63;;;;;;;-4.57;64.27;98239.38;4820272;29;20117;-69
2022/01/07 14:07:29;;;;;;;3.47;1.77;;;;;;;-4.42;68.63;98246.69;4804319;29;20061;-68
2022/01/07 14:10:07;;;;;;;2.22;1.88;;;;;;;-4.55;67.58;98227.19;4806304;29;20081;-67
2022/01/07 14:12:33;;;;;;;2.85;1.65;;;;;;;-4.81;66.03;98239.28;4804982;29;20057;-67
2022/01/07 14:15:09;;;;;;;2.88;2.30;;;;;;;-4.81;65.80;98231.47;4805936;29;20057;-72
2022/01/07 14:17:36;;;;;;;3.53;1.95;;;;;;;-4.81;66.52;98234.09;4806574;29;20049;-75
2022/01/07 14:20:03;;;;;;;5.68;2.10;;;;;;;-4.70;68.22;98227.69;4804858;29;20126;-73
2022/01/07 14:22:28;;;;;;;2.47;1.73;;;;;;;-4.70;68.13;98225.09;4805731;29;20042;-74
2022/01/07 14:24:53;;;;;;;7.22;2.22;;;;;;;-4.79;66.99;98215.84;4814466;29;20148;-72
2022/01/07 14:27:31;;;;;;;1.95;1.60;;;;;;;-5.04;65.46;98220.13;4838385;29;20064;-71
2022/01/07 14:29:58;;;;;;;3.38;2.10;;;;;;;-4.94;67.29;98219.78;4825319;29;20053;-73
2022/01/07 14:32:25;;;;;;;5.68;2.25;;;;;;;-4.87;67.59;98218.72;4807379;29;20049;-73
2022/01/07 14:34:50;;;;;;;3.55;2.25;;;;;;;-5.09;66.56;98202.09;4838255;29;20045;-71
2022/01/07 14:37:15;;;;;;;4.68;2.03;;;;;;;-5.10;67.02;98216.00;4822715;29;20060;-70
2022/01/07 14:39:41;;;;;;;2.05;1.50;;;;;;;-5.16;67.99;98226.56;4823879;29;20056;-70
2022/01/07 14:42:06;;;;;;;4.05;2.00;;;;;;;-5.12;67.65;98228.19;4809941;29;20052;-70
2022/01/07 14:44:30;;;;;;;3.00;1.80;;;;;;;-5.17;67.04;98206.66;4811959;29;20049;-71
2022/01/07 14:46:57;;;;;;;4.70;2.50;;;;;;;-5.19;66.83;98208.50;4842852;29;20041;-73
2022/01/07 14:49:22;;;;;;;5.53;1.95;;;;;;;-5.21;67.67;98229.31;4828546;29;20049;-70
2022/01/07 14:51:47;;;;;;;4.50;2.10;;;;;;;-5.02;68.54;98224.38;4828748;29;20105;-71
2022/01/07 14:54:11;;;;;;;2.72;1.88;;;;;;;-4.87;69.05;98226.50;4827099;29;20060;-70
2022/01/07 14:56:39;;;;;;;6.10;2.17;;;;;;;-4.90;67.68;98220.53;4811111;29;20045;-73
2022/01/07 14:59:03;;;;;;;4.28;2.00;;;;;;;-4.80;68.21;98215.00;4828778;29;20116;-74
2022/01/07 15:01:28;;;;;;;4.38;2.05;;;;;;;-4.89;67.21;98235.25;4811857;29;20072;-70
2022/01/07 15:03:53;;;;;;;4.28;1.92;;;;;;;-4.77;69.78;98225.28;4827376;29;20446;-75
2022/01/07 15:06:18;;;;;;;4.13;2.33;;;;;;;-4.76;70.37;98227.00;4827344;29;20052;-72
2022/01/07 15:08:43;;;;;;;4.75;2.47;;;;;;;-4.94;68.73;98224.97;4827268;29;20083;-73
2022/01/07 15:11:11;;;;;;;4.45;2.40;;;;;;;-4.84;70.41;98215.13;4841653;29;20049;-72
2022/01/07 15:13:35;;;;;;;3.63;2.28;;;;;;;-4.90;69.84;98221.41;4827397;29;20132;-69
2022/01/07 15:18:25;;;;;;;4.15;1.70;;;;;;;-4.83;72.21;98229.81;4827395;29;20471;-73
2022/01/07 15:20:53;;;;;;;2.72;2.25;;;;;;;-4.97;70.02;98226.84;4827606;29;20049;-69
2022/01/07 15:23:18;;;;;;;4.53;2.42;;;;;;;-5.07;69.19;98223.66;4828004;29;20206;-70
2022/01/07 15:25:43;;;;;;;5.18;2.67;;;;;;;-5.16;69.12;98209.22;4841712;29;20086;-71
2022/01/07 15:28:11;;;;;;;3.40;2.20;;;;;;;-4.92;73.07;98224.94;4827510;29;20551;-72
2022/01/07 15:30:38;;;;;;;4.15;2.15;;;;;;;-5.08;70.58;98234.13;4841395;29;20415;-71
2022/01/07 15:33:03;;;;;;;5.47;1.73;;;;;;;-5.09;71.10;98227.25;4827643;29;20045;-72
2022/01/07 15:35:28;;;;;;;2.25;1.50;;;;;;;-5.03;72.54;98216.63;4826942;29;20097;-73
2022/01/07 15:37:52;;;;;;;4.70;2.65;;;;;;;-5.28;70.72;98226.94;4826622;29;20083;-72
2022/01/07 15:40:17;;;;;;;8.70;2.88;;;;;;;-5.30;71.14;98224.38;4840907;29;20049;-73
2022/01/07 15:42:43;;;;;;;4.30;2.33;;;;;;;-5.19;72.10;98229.28;4827238;29;20053;-73
2022/01/07 15:45:10;;;;;;;3.67;2.17;;;;;;;-5.28;71.30;98227.78;4848656;29;20053;-72
2022/01/07 15:47:35;;;;;;;4.03;1.98;;;;;;;-5.20;72.70;98240.56;4837491;29;20049;-72
2022/01/07 15:50:00;;;;;;;4.32;2.60;;;;;;;-5.38;72.17;98228.97;4853770;29;20041;-70
2022/01/07 15:52:26;;;;;;;4.53;2.33;;;;;;;-5.35;73.45;98238.41;4830837;29;20057;-70
2022/01/07 15:54:53;;;;;;;4.75;2.88;;;;;;;-5.34;74.88;98238.38;4828393;29;20093;-70
2022/01/07 15:57:21;;;;;;;4.70;2.45;;;;;;;-5.33;74.96;98244.44;4828238;29;20061;-71
2022/01/07 15:59:46;;;;;;;4.20;1.92;;;;;;;-5.53;73.97;98245.84;4810011;29;20562;-72
2022/01/07 16:02:10;;;;;;;5.57;2.47;;;;;;;-5.42;75.44;98245.56;4826310;29;20631;-70
2022/01/07 16:04:35;;;;;;;4.50;2.58;;;;;;;-5.47;75.62;98236.19;4826359;29;20404;-69
2022/01/07 16:07:00;;;;;;;3.63;2.25;;;;;;;-5.56;75.95;98248.56;4840479;29;20128;-70
2022/01/07 16:09:28;;;;;;;4.60;3.15;;;;;;;-5.61;76.10;98242.63;4840465;29;20057;-70
2022/01/07 16:11:52;;;;;;;3.80;2.15;;;;;;;-5.50;76.72;98252.69;4825992;29;20057;-71
2022/01/07 16:14:18;;;;;;;3.20;2.13;;;;;;;-5.59;76.95;98242.59;4825839;29;20045;-70
2022/01/07 16:16:44;;;;;;;3.03;1.98;;;;;;;-5.57;76.90;98262.44;4809921;29;20809;-71
2022/01/07 16:19:12;;;;;;;5.40;2.38;;;;;;;-5.63;76.30;98257.41;4826491;29;20045;-71
2022/01/07 16:21:37;;;;;;;2.30;1.80;;;;;;;-5.60;75.76;98256.47;4827444;29;20054;-70
2022/01/07 16:24:04;;;;;;;6.97;2.33;;;;;;;-5.55;76.19;98255.47;4826234;29;20049;-71
2022/01/07 16:26:30;;;;;;;4.32;2.45;;;;;;;-5.45;76.54;98263.81;4826522;29;20498;-71
2022/01/07 16:28:54;;;;;;;2.67;1.50;;;;;;;-5.22;78.25;98263.13;4827316;29;20049;-72
2022/01/07 16:31:19;;;;;;;2.63;1.80;;;;;;;-5.34;78.07;98253.13;4826503;29;20053;-72
2022/01/07 16:33:44;;;;;;;4.30;2.15;;;;;;;-5.51;77.43;98244.06;4824493;29;20511;-72
2022/01/07 16:36:08;;;;;;;3.95;2.25;;;;;;;-5.49;77.51;98249.22;4826017;29;20136;-71
2022/01/07 16:38:33;;;;;;;6.28;3.17;;;;;;;-5.55;77.43;98252.84;4825417;29;20100;-72
2022/01/07 16:40:59;;;;;;;5.32;2.72;;;;;;;-5.51;77.73;98256.19;4825970;29;20064;-72
2022/01/07 16:43:24;;;;;;;4.78;2.08;;;;;;;-5.49;78.17;98250.06;4808842;29;20108;-71
2022/01/07 16:45:49;;;;;;;3.75;2.50;;;;;;;-5.59;77.50;98253.84;4825402;29;20054;-71
2022/01/07 16:48:16;;;;;;;7.32;2.90;;;;;;;-5.55;77.69;98254.59;4839814;29;20057;-71
2022/01/07 16:50:41;;;;;;;7.88;3.03;;;;;;;-5.55;77.40;98245.06;4825047;29;20057;-70
2022/01/07 16:53:06;;;;;;;2.67;1.85;;;;;;;-5.43;78.58;98263.78;4826064;29;20057;-72
2022/01/07 16:55:33;;;;;;;4.03;2.92;;;;;;;-5.62;77.50;98259.09;4809049;29;20124;-71
2022/01/07 16:57:57;;;;;;;4.47;2.33;;;;;;;-5.46;78.34;98250.88;4825423;29;20441;-71
2022/01/07 17:00:22;;;;;;;3.80;1.60;;;;;;;-5.60;78.16;98259.91;4825265;29;20437;-73
2022/01/07 17:02:47;;;;;;;5.55;2.72;;;;;;;-5.58;78.52;98268.50;4809107;29;20049;-74
2022/01/07 17:05:13;;;;;;;2.72;1.83;;;;;;;-5.45;79.21;98271.59;4808718;29;20049;-73
2022/01/07 17:07:38;;;;;;;9.85;2.83;;;;;;;-5.61;79.16;98281.56;4825346;29;20226;-73
2022/01/07 17:10:07;;;;;;;6.38;2.75;;;;;;;-5.49;79.94;98278.63;4825635;29;20492;-71
2022/01/07 17:12:36;;;;;;;14.63;3.38;;;;;;;-5.58;79.62;98276.31;4839755;29;20041;-72
2022/01/07 17:15:04;;;;;;;3.00;2.10;;;;;;;-5.50;79.74;98281.25;4826012;29;20051;-73
2022/01/07 17:17:30;;;;;;;6.13;2.60;;;;;;;-5.72;79.48;98283.63;4808746;29;20049;-71
2022/01/07 17:19:54;;;;;;;2.83;1.73;;;;;;;-5.66;80.03;98286.06;4824789;29;20561;-71
2022/01/07 17:22:19;;;;;;;6.75;2.50;;;;;;;-5.66;79.99;98285.22;4825154;29;20484;-71
2022/01/07 17:24:44;;;;;;;3.72;1.90;;;;;;;-5.71;79.72;98293.13;4808596;29;20061;-69
2022/01/07 17:27:10;;;;;;;4.80;2.42;;;;;;;-5.62;80.33;98311.03;4824696;29;20073;-70
2022/01/07 17:29:35;;;;;;;5.05;2.70;;;;;;;-5.84;79.13;98294.34;4823483;29;20045;-70
2022/01/07 17:32:00;;;;;;;4.00;2.55;;;;;;;-5.71;79.90;98302.66;4838796;29;20051;-70
2022/01/07 17:34:24;;;;;;;2.25;1.50;;;;;;;-5.66;79.40;98309.44;4824922;29;20466;-69
2022/01/07 17:36:50;;;;;;;3.30;2.40;;;;;;;-5.71;79.33;98302.66;4808356;29;20035;-70
2022/01/07 17:39:14;;;;;;;2.03;1.73;;;;;;;-5.70;79.56;98318.19;4825068;29;20061;-75
2022/01/07 17:41:39;;;;;;;7.68;2.70;;;;;;;-5.81;79.66;98299.47;4825066;29;20041;-75
2022/01/07 17:44:04;;;;;;;5.13;2.20;;;;;;;-5.71;79.94;98329.47;4839117;29;20079;-76
2022/01/07 17:46:28;;;;;;;4.68;1.95;;;;;;;-5.66;80.28;98327.59;4825049;29;20046;-75
2022/01/07 17:48:53;;;;;;;2.50;2.08;;;;;;;-5.63;80.68;98332.69;4824978;29;20041;-75
2022/01/07 17:51:18;;;;;;;4.95;2.78;;;;;;;-5.57;80.72;98340.31;4824718;29;20053;-74
2022/01/07 17:53:43;;;;;;;12.30;4.35;;;;;;;-5.58;81.03;98355.94;4825049;29;20607;-73
2022/01/07 17:56:08;;;;;;;5.35;3.55;;;;;;;-5.50;81.33;98362.59;4824420;29;20053;-71
2022/01/07 17:58:33;;;;;;;5.82;2.67;;;;;;;-5.42;82.09;98385.78;4839247;29;20052;-73
2022/01/07 18:00:59;;;;;;;5.78;2.53;;;;;;;-5.60;81.62;98374.16;4825529;29;20051;-71
2022/01/07 18:03:24;;;;;;;5.03;1.77;;;;;;;-5.43;81.37;98380.63;4825905;29;20132;-69
2022/01/07 18:05:49;;;;;;;3.22;1.40;;;;;;;-5.49;80.39;98371.25;4840543;29;20129;-69
2022/01/07 18:08:14;;;;;;;4.22;1.90;;;;;;;-5.38;81.06;98379.59;4825936;29;20045;-70
2022/01/07 18:10:42;;;;;;;4.53;1.80;;;;;;;-5.62;78.70;98382.84;4826083;29;20053;-69
2022/01/07 18:13:07;;;;;;;3.63;2.28;;;;;;;-5.73;76.73;98390.94;4826039;29;20060;-68
2022/01/07 18:15:32;;;;;;;1.50;1.33;;;;;;;-5.57;78.28;98401.78;4839615;29;20042;-69
2022/01/07 18:17:57;;;;;;;3.03;2.00;;;;;;;-5.67;76.57;98403.78;4810296;29;20053;-71
2022/01/07 18:20:24;;;;;;;2.55;1.52;;;;;;;-5.62;76.75;98404.47;4827305;29;20117;-69
2022/01/07 18:22:49;;;;;;;2.53;1.88;;;;;;;-5.66;74.82;98422.78;4794165;29;20045;-69
2022/01/07 18:25:14;;;;;;;2.28;1.70;;;;;;;-5.57;75.36;98419.94;4841931;29;20121;-72
2022/01/07 18:27:41;;;;;;;3.17;1.83;;;;;;;-5.55;74.63;98437.19;4818902;29;20049;-72
2022/01/07 18:30:09;;;;;;;3.03;1.73;;;;;;;-5.54;73.33;98409.50;4838891;29;20540;-72
2022/01/07 18:32:34;;;;;;;2.60;1.60;;;;;;;-5.55;72.26;98426.81;4838531;29;20141;-73
2022/01/07 18:34:59;;;;;;;2.33;1.38;;;;;;;-5.57;71.17;98423.41;4839886;29;20049;-73
2022/01/07 18:37:24;;;;;;;1.88;1.55;;;;;;;-5.55;71.63;98442.38;4823216;29;20056;-72